createdAt,value
2019-05-29T00:00:14.693Z,0.00
2019-05-29T00:01:18.485Z,0.00
2019-05-29T00:02:14.957Z,0.00
2019-05-29T00:03:14.504Z,0.00
2019-05-29T00:04:14.436Z,0.00
2019-05-29T00:05:14.262Z,0.00
2019-05-29T00:06:14.355Z,0.00
2019-05-29T00:07:14.233Z,0.00
2019-05-29T00:08:14.637Z,0.00
2019-05-29T00:09:14.318Z,0.00
2019-05-29T00:10:14.415Z,0.00
2019-05-29T00:11:14.307Z,0.00
2019-05-29T00:12:18.416Z,0.00
2019-05-29T00:13:14.910Z,0.00
2019-05-29T00:14:24.998Z,0.00
2019-05-29T00:15:14.819Z,0.00
2019-05-29T00:16:14.487Z,0.00
2019-05-29T00:17:14.656Z,0.00
2019-05-29T00:18:14.599Z,0.00
2019-05-29T00:19:14.587Z,0.00
2019-05-29T00:20:14.648Z,0.00
2019-05-29T00:21:14.728Z,0.00
2019-05-29T00:22:14.517Z,0.00
2019-05-29T00:23:14.684Z,0.00
2019-05-29T00:24:13.720Z,0.00
2019-05-29T00:25:14.717Z,0.00
2019-05-29T00:26:14.586Z,0.00
2019-05-29T00:27:15.461Z,0.00
2019-05-29T00:28:14.772Z,0.00
2019-05-29T00:29:13.840Z,0.00
2019-05-29T00:30:14.907Z,0.00
2019-05-29T00:31:14.012Z,0.00
2019-05-29T00:32:13.642Z,0.00
2019-05-29T00:33:14.424Z,0.00
2019-05-29T00:34:13.614Z,0.00
2019-05-29T00:35:14.322Z,0.00
2019-05-29T00:36:14.327Z,0.00
2019-05-29T00:37:14.609Z,0.00
2019-05-29T00:38:14.683Z,0.00
2019-05-29T00:39:14.765Z,0.00
2019-05-29T00:40:13.561Z,0.00
2019-05-29T00:41:13.555Z,0.00
2019-05-29T00:42:14.863Z,0.00
2019-05-29T00:43:13.537Z,0.00
2019-05-29T00:44:13.531Z,0.00
2019-05-29T00:45:13.519Z,0.00
2019-05-29T00:46:13.499Z,0.00
2019-05-29T00:47:13.691Z,0.00
2019-05-29T00:48:14.004Z,0.00
2019-05-29T00:49:13.887Z,0.00
2019-05-29T00:50:14.139Z,0.00
2019-05-29T00:51:13.440Z,0.00
2019-05-29T00:52:14.283Z,0.00
2019-05-29T00:53:14.294Z,0.00
2019-05-29T00:54:14.464Z,0.00
2019-05-29T00:55:14.589Z,0.00
2019-05-29T00:56:13.383Z,0.00
2019-05-29T00:57:13.380Z,0.00
2019-05-29T00:58:13.367Z,0.00
2019-05-29T00:59:13.374Z,0.00
2019-05-29T01:00:13.341Z,0.00
2019-05-29T01:01:13.435Z,0.00
2019-05-29T01:02:13.744Z,0.00
2019-05-29T01:03:13.757Z,0.00
2019-05-29T01:04:13.651Z,0.00
2019-05-29T01:05:13.919Z,0.00
2019-05-29T01:06:13.947Z,0.00
2019-05-29T01:07:14.164Z,0.00
2019-05-29T01:08:14.507Z,0.00
2019-05-29T01:09:14.390Z,0.00
2019-05-29T01:10:13.267Z,0.00
2019-05-29T01:11:13.224Z,0.00
2019-05-29T01:12:13.218Z,0.00
2019-05-29T01:13:13.220Z,0.00
2019-05-29T01:14:13.219Z,0.00
2019-05-29T01:15:13.345Z,0.00
2019-05-29T01:16:13.391Z,0.00
2019-05-29T01:17:13.717Z,0.00
2019-05-29T01:18:13.807Z,0.00
2019-05-29T01:19:13.899Z,0.00
2019-05-29T01:20:14.000Z,0.00
2019-05-29T01:21:13.832Z,0.00
2019-05-29T01:22:14.095Z,0.00
2019-05-29T01:23:14.136Z,0.00
2019-05-29T01:24:14.185Z,0.00
2019-05-29T01:25:13.082Z,0.00
2019-05-29T01:26:13.079Z,0.00
2019-05-29T01:27:13.054Z,0.00
2019-05-29T01:28:13.065Z,0.00
2019-05-29T01:29:13.070Z,0.00
2019-05-29T01:30:13.230Z,0.00
2019-05-29T01:31:13.601Z,0.00
2019-05-29T01:32:13.458Z,0.00
2019-05-29T01:33:16.838Z,0.00
2019-05-29T01:34:13.993Z,0.00
2019-05-29T01:35:13.772Z,0.00
2019-05-29T01:36:13.855Z,0.00
2019-05-29T01:37:13.978Z,0.00
2019-05-29T01:38:12.943Z,0.00
2019-05-29T01:39:12.929Z,0.00
2019-05-29T01:40:19.992Z,0.00
2019-05-29T01:41:15.071Z,0.00
2019-05-29T01:42:12.895Z,0.00
2019-05-29T01:43:12.893Z,0.00
2019-05-29T01:44:12.894Z,0.00
2019-05-29T01:45:12.907Z,0.00
2019-05-29T01:46:12.867Z,0.00
2019-05-29T01:47:12.847Z,0.00
2019-05-29T01:48:12.839Z,0.00
2019-05-29T01:49:12.839Z,0.00
2019-05-29T01:50:12.828Z,0.00
2019-05-29T01:51:12.824Z,0.00
2019-05-29T01:52:12.804Z,0.00
2019-05-29T01:53:12.781Z,0.00
2019-05-29T01:54:12.769Z,0.00
2019-05-29T01:55:12.773Z,0.00
2019-05-29T01:56:12.760Z,0.00
2019-05-29T01:57:12.748Z,0.00
2019-05-29T01:58:12.738Z,0.00
2019-05-29T01:59:12.723Z,0.00
2019-05-29T02:00:12.723Z,0.00
2019-05-29T02:01:12.713Z,0.00
2019-05-29T02:02:12.718Z,0.00
2019-05-29T02:03:12.685Z,0.00
2019-05-29T02:04:12.677Z,0.00
2019-05-29T02:05:12.678Z,0.00
2019-05-29T02:06:12.645Z,0.00
2019-05-29T02:07:12.636Z,0.00
2019-05-29T02:08:12.632Z,0.00
2019-05-29T02:09:12.618Z,0.00
2019-05-29T02:10:12.618Z,0.00
2019-05-29T02:11:12.637Z,0.00
2019-05-29T02:12:12.582Z,0.00
2019-05-29T02:13:12.584Z,0.00
2019-05-29T02:14:12.567Z,0.00
2019-05-29T02:15:23.896Z,0.00
2019-05-29T02:16:13.538Z,0.00
2019-05-29T02:17:12.560Z,0.00
2019-05-29T02:18:12.520Z,0.00
2019-05-29T02:19:12.508Z,0.00
2019-05-29T02:20:12.513Z,0.00
2019-05-29T02:21:12.515Z,0.00
2019-05-29T02:22:12.478Z,0.00
2019-05-29T02:23:12.461Z,0.00
2019-05-29T02:24:12.464Z,0.00
2019-05-29T02:25:15.843Z,0.00
2019-05-29T02:26:12.472Z,0.00
2019-05-29T02:27:12.428Z,0.00
2019-05-29T02:28:12.410Z,0.00
2019-05-29T02:29:12.400Z,0.00
2019-05-29T02:30:12.455Z,0.00
2019-05-29T02:31:12.388Z,0.00
2019-05-29T02:32:12.373Z,0.00
2019-05-29T02:33:12.378Z,0.00
2019-05-29T02:34:12.346Z,0.00
2019-05-29T02:35:12.404Z,0.00
2019-05-29T02:36:12.324Z,0.00
2019-05-29T02:37:12.315Z,0.00
2019-05-29T02:38:12.322Z,0.00
2019-05-29T02:39:12.298Z,0.00
2019-05-29T02:40:12.308Z,0.00
2019-05-29T02:41:12.272Z,0.00
2019-05-29T02:42:12.328Z,0.00
2019-05-29T02:43:12.254Z,0.00
2019-05-29T02:44:12.244Z,0.00
2019-05-29T02:45:12.246Z,0.00
2019-05-29T02:46:12.224Z,0.00
2019-05-29T02:47:12.212Z,0.00
2019-05-29T02:48:12.198Z,0.00
2019-05-29T02:49:12.195Z,0.00
2019-05-29T02:50:12.250Z,0.00
2019-05-29T02:51:12.483Z,0.00
2019-05-29T02:52:12.180Z,0.00
2019-05-29T02:53:12.148Z,0.00
2019-05-29T02:54:12.153Z,0.00
2019-05-29T02:55:12.150Z,0.00
2019-05-29T02:56:12.217Z,0.00
2019-05-29T02:57:12.116Z,0.00
2019-05-29T02:58:12.127Z,0.00
2019-05-29T02:59:12.091Z,0.00
2019-05-29T03:00:12.086Z,0.00
2019-05-29T03:01:12.085Z,0.00
2019-05-29T03:02:12.096Z,0.00
2019-05-29T03:03:12.061Z,0.00
2019-05-29T03:04:12.056Z,0.00
2019-05-29T03:05:12.017Z,0.00
2019-05-29T03:06:12.041Z,0.00
2019-05-29T03:07:11.998Z,0.00
2019-05-29T03:08:12.002Z,0.00
2019-05-29T03:09:11.989Z,0.00
2019-05-29T03:10:11.967Z,0.00
2019-05-29T03:11:11.986Z,0.00
2019-05-29T03:12:11.951Z,0.00
2019-05-29T03:13:11.950Z,0.00
2019-05-29T03:14:11.933Z,0.00
2019-05-29T03:15:11.932Z,0.00
2019-05-29T03:16:12.962Z,0.00
2019-05-29T03:17:11.893Z,0.00
2019-05-29T03:18:11.880Z,0.00
2019-05-29T03:19:11.895Z,0.00
2019-05-29T03:20:11.867Z,0.00
2019-05-29T03:21:11.875Z,0.00
2019-05-29T03:22:11.847Z,0.00
2019-05-29T03:23:11.828Z,0.00
2019-05-29T03:24:11.819Z,0.00
2019-05-29T03:25:11.810Z,0.00
2019-05-29T03:26:11.815Z,0.00
2019-05-29T03:27:11.793Z,0.00
2019-05-29T03:28:11.774Z,0.00
2019-05-29T03:29:11.772Z,0.00
2019-05-29T03:30:11.752Z,0.00
2019-05-29T03:31:11.777Z,0.00
2019-05-29T03:32:14.258Z,0.00
2019-05-29T03:33:11.725Z,0.00
2019-05-29T03:34:11.722Z,0.00
2019-05-29T03:35:11.725Z,0.00
2019-05-29T03:36:11.706Z,0.00
2019-05-29T03:37:11.680Z,0.00
2019-05-29T03:38:11.686Z,0.00
2019-05-29T03:39:11.692Z,0.00
2019-05-29T03:40:11.650Z,0.00
2019-05-29T03:41:11.746Z,0.00
2019-05-29T03:42:11.723Z,0.00
2019-05-29T03:43:11.670Z,0.00
2019-05-29T03:44:11.641Z,0.00
2019-05-29T03:45:11.622Z,0.00
2019-05-29T03:46:29.180Z,0.00
2019-05-29T03:47:12.608Z,0.00
2019-05-29T03:48:11.580Z,0.00
2019-05-29T03:49:11.557Z,0.00
2019-05-29T03:50:15.440Z,0.00
2019-05-29T03:51:11.546Z,0.00
2019-05-29T03:52:11.535Z,0.00
2019-05-29T03:53:11.566Z,0.00
2019-05-29T03:54:11.513Z,0.00
2019-05-29T03:55:11.490Z,0.00
2019-05-29T03:56:11.481Z,0.00
2019-05-29T03:57:11.500Z,0.00
2019-05-29T03:58:11.473Z,0.00
2019-05-29T03:59:11.461Z,0.00
2019-05-29T04:00:11.435Z,0.00
2019-05-29T04:01:11.520Z,0.00
2019-05-29T04:02:11.428Z,0.00
2019-05-29T04:03:11.404Z,0.00
2019-05-29T04:04:11.398Z,0.00
2019-05-29T04:05:11.394Z,0.00
2019-05-29T04:06:11.376Z,0.00
2019-05-29T04:07:11.378Z,0.00
2019-05-29T04:08:11.351Z,0.00
2019-05-29T04:09:11.339Z,0.00
2019-05-29T04:10:11.330Z,0.00
2019-05-29T04:11:11.319Z,0.00
2019-05-29T04:12:11.331Z,0.00
2019-05-29T04:13:11.304Z,0.00
2019-05-29T04:14:11.301Z,0.00
2019-05-29T04:15:11.278Z,5.62
2019-05-29T04:16:11.296Z,5.62
2019-05-29T04:17:11.273Z,5.62
2019-05-29T04:18:11.247Z,5.62
2019-05-29T04:19:11.244Z,5.62
2019-05-29T04:20:18.354Z,5.62
2019-05-29T04:21:11.217Z,5.62
2019-05-29T04:22:11.219Z,5.62
2019-05-29T04:23:11.192Z,5.62
2019-05-29T04:24:11.192Z,5.62
2019-05-29T04:25:11.228Z,5.62
2019-05-29T04:26:11.161Z,5.62
2019-05-29T04:27:11.165Z,5.62
2019-05-29T04:28:11.144Z,5.62
2019-05-29T04:29:11.239Z,5.62
2019-05-29T04:30:11.123Z,5.62
2019-05-29T04:31:11.110Z,5.62
2019-05-29T04:32:11.135Z,5.62
2019-05-29T04:33:11.088Z,5.62
2019-05-29T04:34:11.077Z,5.62
2019-05-29T04:35:11.077Z,5.62
2019-05-29T04:36:11.093Z,5.62
2019-05-29T04:37:11.064Z,5.62
2019-05-29T04:38:11.039Z,5.62
2019-05-29T04:39:11.027Z,11.25
2019-05-29T04:40:11.038Z,11.25
2019-05-29T04:41:11.009Z,11.25
2019-05-29T04:42:11.029Z,5.62
2019-05-29T04:43:10.981Z,5.62
2019-05-29T04:44:10.977Z,5.62
2019-05-29T04:45:11.002Z,5.62
2019-05-29T04:46:10.957Z,5.62
2019-05-29T04:47:12.367Z,5.62
2019-05-29T04:48:10.945Z,5.62
2019-05-29T04:49:10.918Z,11.25
2019-05-29T04:50:10.911Z,11.25
2019-05-29T04:51:10.908Z,11.25
2019-05-29T04:52:10.887Z,11.25
2019-05-29T04:53:10.891Z,11.25
2019-05-29T04:54:10.878Z,11.25
2019-05-29T04:55:10.855Z,11.25
2019-05-29T04:56:10.843Z,11.25
2019-05-29T04:57:10.839Z,11.25
2019-05-29T04:58:10.835Z,11.25
2019-05-29T04:59:10.817Z,11.25
2019-05-29T05:00:10.805Z,11.25
2019-05-29T05:01:10.794Z,11.25
2019-05-29T05:02:10.804Z,16.88
2019-05-29T05:03:10.783Z,16.88
2019-05-29T05:04:10.761Z,11.25
2019-05-29T05:05:10.765Z,16.88
2019-05-29T05:06:10.738Z,16.88
2019-05-29T05:07:10.730Z,16.88
2019-05-29T05:08:10.739Z,16.88
2019-05-29T05:09:10.708Z,16.88
2019-05-29T05:10:10.697Z,16.88
2019-05-29T05:11:10.696Z,16.88
2019-05-29T05:12:10.675Z,16.88
2019-05-29T05:13:10.683Z,16.88
2019-05-29T05:14:10.654Z,16.88
2019-05-29T05:15:10.647Z,16.88
2019-05-29T05:16:10.634Z,16.88
2019-05-29T05:17:25.157Z,16.88
2019-05-29T05:18:11.625Z,16.88
2019-05-29T05:19:10.602Z,16.88
2019-05-29T05:20:10.593Z,16.88
2019-05-29T05:21:10.583Z,22.50
2019-05-29T05:22:10.570Z,22.50
2019-05-29T05:23:10.582Z,22.50
2019-05-29T05:24:10.551Z,22.50
2019-05-29T05:25:10.540Z,28.12
2019-05-29T05:26:10.541Z,22.50
2019-05-29T05:27:10.516Z,22.50
2019-05-29T05:28:10.521Z,22.50
2019-05-29T05:29:10.501Z,22.50
2019-05-29T05:30:10.488Z,22.50
2019-05-29T05:31:10.476Z,22.50
2019-05-29T05:32:10.466Z,22.50
2019-05-29T05:33:10.469Z,22.50
2019-05-29T05:34:10.446Z,22.50
2019-05-29T05:35:14.226Z,22.50
2019-05-29T05:36:10.432Z,22.50
2019-05-29T05:37:10.412Z,22.50
2019-05-29T05:38:10.420Z,22.50
2019-05-29T05:39:10.389Z,22.50
2019-05-29T05:40:10.392Z,22.50
2019-05-29T05:41:10.373Z,22.50
2019-05-29T05:42:10.359Z,22.50
2019-05-29T05:43:23.156Z,22.50
2019-05-29T05:44:11.335Z,22.50
2019-05-29T05:45:10.326Z,28.12
2019-05-29T05:46:10.317Z,28.12
2019-05-29T05:47:10.307Z,28.12
2019-05-29T05:48:10.300Z,28.12
2019-05-29T05:49:10.309Z,28.12
2019-05-29T05:50:10.272Z,28.12
2019-05-29T05:51:10.263Z,28.12
2019-05-29T05:52:10.252Z,28.12
2019-05-29T05:53:10.243Z,28.12
2019-05-29T05:54:10.245Z,28.12
2019-05-29T05:55:10.235Z,33.75
2019-05-29T05:56:10.210Z,33.75
2019-05-29T05:57:10.223Z,28.12
2019-05-29T05:58:10.189Z,28.12
2019-05-29T05:59:10.195Z,28.12
2019-05-29T06:00:10.170Z,28.12
2019-05-29T06:01:10.167Z,28.12
2019-05-29T06:02:10.147Z,22.50
2019-05-29T06:03:10.139Z,22.50
2019-05-29T06:04:10.185Z,22.50
2019-05-29T06:05:10.114Z,22.50
2019-05-29T06:06:10.105Z,22.50
2019-05-29T06:07:10.101Z,22.50
2019-05-29T06:08:10.082Z,16.88
2019-05-29T06:09:10.087Z,22.50
2019-05-29T06:10:10.063Z,28.12
2019-05-29T06:11:10.051Z,28.12
2019-05-29T06:12:10.041Z,28.12
2019-05-29T06:13:10.039Z,28.12
2019-05-29T06:14:10.037Z,28.12
2019-05-29T06:15:10.030Z,28.12
2019-05-29T06:16:09.998Z,28.12
2019-05-29T06:17:09.988Z,28.12
2019-05-29T06:18:20.592Z,28.12
2019-05-29T06:19:10.999Z,28.12
2019-05-29T06:20:09.957Z,28.12
2019-05-29T06:21:09.945Z,28.12
2019-05-29T06:22:09.935Z,28.12
2019-05-29T06:23:09.926Z,28.12
2019-05-29T06:24:09.928Z,28.12
2019-05-29T06:25:09.945Z,28.12
2019-05-29T06:26:09.892Z,28.12
2019-05-29T06:27:09.881Z,33.75
2019-05-29T06:28:09.885Z,33.75
2019-05-29T06:29:09.874Z,33.75
2019-05-29T06:30:09.858Z,33.75
2019-05-29T06:31:09.846Z,33.75
2019-05-29T06:32:09.838Z,39.38
2019-05-29T06:33:09.826Z,39.38
2019-05-29T06:34:09.824Z,39.38
2019-05-29T06:35:09.803Z,39.38
2019-05-29T06:36:09.786Z,39.38
2019-05-29T06:37:09.792Z,39.38
2019-05-29T06:38:09.767Z,45.00
2019-05-29T06:39:09.793Z,45.00
2019-05-29T06:40:09.744Z,50.62
2019-05-29T06:41:09.732Z,50.62
2019-05-29T06:42:09.725Z,56.25
2019-05-29T06:43:11.904Z,61.88
2019-05-29T06:44:09.701Z,67.50
2019-05-29T06:45:09.725Z,67.50
2019-05-29T06:46:09.682Z,73.12
2019-05-29T06:47:09.670Z,73.12
2019-05-29T06:48:09.661Z,73.12
2019-05-29T06:49:09.673Z,67.50
2019-05-29T06:50:09.653Z,73.12
2019-05-29T06:51:09.629Z,73.12
2019-05-29T06:52:09.616Z,67.50
2019-05-29T06:53:09.613Z,61.88
2019-05-29T06:54:09.598Z,61.88
2019-05-29T06:55:09.614Z,61.88
2019-05-29T06:56:09.582Z,56.25
2019-05-29T06:57:09.565Z,61.88
2019-05-29T06:58:09.566Z,61.88
2019-05-29T06:59:09.546Z,56.25
2019-05-29T07:00:09.566Z,50.62
2019-05-29T07:01:09.536Z,50.62
2019-05-29T07:02:09.511Z,56.25
2019-05-29T07:03:09.512Z,50.62
2019-05-29T07:04:12.188Z,39.38
2019-05-29T07:05:09.496Z,39.38
2019-05-29T07:06:09.486Z,39.38
2019-05-29T07:07:09.468Z,45.00
2019-05-29T07:08:19.053Z,45.00
2019-05-29T07:09:10.441Z,39.38
2019-05-29T07:10:09.444Z,39.38
2019-05-29T07:11:09.419Z,33.75
2019-05-29T07:12:09.410Z,45.00
2019-05-29T07:13:09.410Z,45.00
2019-05-29T07:14:09.395Z,45.00
2019-05-29T07:15:09.389Z,45.00
2019-05-29T07:16:09.364Z,45.00
2019-05-29T07:17:09.382Z,45.00
2019-05-29T07:18:09.347Z,39.38
2019-05-29T07:19:24.782Z,39.38
2019-05-29T07:20:10.338Z,33.75
2019-05-29T07:21:09.331Z,28.12
2019-05-29T07:22:09.300Z,22.50
2019-05-29T07:23:09.295Z,22.50
2019-05-29T07:24:09.287Z,16.88
2019-05-29T07:25:09.284Z,16.88
2019-05-29T07:26:09.256Z,22.50
2019-05-29T07:27:13.357Z,28.12
2019-05-29T07:28:09.254Z,33.75
2019-05-29T07:29:09.230Z,45.00
2019-05-29T07:30:09.230Z,50.62
2019-05-29T07:31:09.209Z,50.62
2019-05-29T07:32:09.206Z,45.00
2019-05-29T07:33:09.183Z,45.00
2019-05-29T07:34:09.173Z,45.00
2019-05-29T07:35:09.177Z,45.00
2019-05-29T07:36:09.152Z,45.00
2019-05-29T07:37:09.150Z,39.38
2019-05-29T07:38:09.129Z,33.75
2019-05-29T07:39:09.128Z,39.38
2019-05-29T07:40:09.123Z,39.38
2019-05-29T07:41:09.138Z,50.62
2019-05-29T07:42:09.093Z,56.25
2019-05-29T07:43:09.155Z,50.62
2019-05-29T07:44:09.066Z,50.62
2019-05-29T07:45:09.069Z,45.00
2019-05-29T07:46:09.060Z,45.00
2019-05-29T07:47:09.981Z,45.00
2019-05-29T07:48:09.023Z,39.38
2019-05-29T07:49:09.028Z,45.00
2019-05-29T07:50:09.143Z,61.88
2019-05-29T07:51:08.989Z,67.50
2019-05-29T07:52:08.980Z,73.12
2019-05-29T07:53:08.982Z,73.12
2019-05-29T07:54:08.977Z,67.50
2019-05-29T07:55:08.980Z,61.88
2019-05-29T07:56:21.657Z,61.88
2019-05-29T07:57:09.929Z,61.88
2019-05-29T07:58:08.923Z,67.50
2019-05-29T07:59:08.910Z,73.12
2019-05-29T08:00:08.896Z,67.50
2019-05-29T08:01:13.132Z,67.50
2019-05-29T08:02:09.873Z,67.50
2019-05-29T08:03:08.862Z,67.50
2019-05-29T08:04:08.869Z,67.50
2019-05-29T08:05:08.843Z,61.88
2019-05-29T08:06:08.878Z,56.25
2019-05-29T08:07:08.834Z,50.62
2019-05-29T08:08:08.808Z,39.38
2019-05-29T08:09:08.798Z,33.75
2019-05-29T08:10:08.786Z,28.12
2019-05-29T08:11:09.440Z,28.12
2019-05-29T08:12:08.765Z,28.12
2019-05-29T08:13:08.761Z,22.50
2019-05-29T08:14:08.746Z,22.50
2019-05-29T08:15:08.765Z,22.50
2019-05-29T08:16:08.745Z,28.12
2019-05-29T08:17:08.717Z,33.75
2019-05-29T08:18:08.701Z,39.38
2019-05-29T08:19:08.704Z,45.00
2019-05-29T08:20:08.683Z,56.25
2019-05-29T08:21:08.685Z,61.88
2019-05-29T08:22:08.665Z,61.88
2019-05-29T08:23:08.648Z,67.50
2019-05-29T08:24:08.669Z,73.12
2019-05-29T08:25:08.631Z,73.12
2019-05-29T08:26:08.639Z,73.12
2019-05-29T08:27:08.612Z,73.12
2019-05-29T08:28:08.611Z,78.75
2019-05-29T08:29:08.587Z,78.75
2019-05-29T08:30:08.583Z,78.75
2019-05-29T08:31:08.583Z,73.12
2019-05-29T08:32:08.553Z,73.12
2019-05-29T08:33:08.544Z,67.50
2019-05-29T08:34:08.534Z,61.88
2019-05-29T08:35:08.530Z,67.50
2019-05-29T08:36:08.545Z,67.50
2019-05-29T08:37:08.501Z,73.12
2019-05-29T08:38:08.489Z,67.50
2019-05-29T08:39:08.498Z,61.88
2019-05-29T08:40:08.468Z,61.88
2019-05-29T08:41:08.471Z,67.50
2019-05-29T08:42:22.631Z,61.88
2019-05-29T08:43:09.456Z,56.25
2019-05-29T08:44:08.428Z,61.88
2019-05-29T08:45:08.417Z,78.75
2019-05-29T08:46:08.423Z,101.25
2019-05-29T08:47:10.403Z,123.75
2019-05-29T08:48:08.383Z,140.62
2019-05-29T08:49:08.372Z,146.25
2019-05-29T08:50:18.033Z,151.88
2019-05-29T08:51:09.370Z,157.50
2019-05-29T08:52:12.293Z,157.50
2019-05-29T08:53:08.329Z,157.50
2019-05-29T08:54:22.934Z,157.50
2019-05-29T08:55:09.306Z,146.25
2019-05-29T08:56:08.322Z,140.62
2019-05-29T08:57:08.284Z,135.00
2019-05-29T08:58:08.270Z,129.38
2019-05-29T08:59:08.258Z,123.75
2019-05-29T09:00:08.250Z,118.12
2019-05-29T09:01:08.299Z,112.50
2019-05-29T09:02:08.236Z,106.88
2019-05-29T09:03:08.218Z,101.25
2019-05-29T09:04:08.205Z,95.62
2019-05-29T09:05:08.200Z,84.38
2019-05-29T09:06:09.232Z,78.75
2019-05-29T09:07:08.204Z,73.12
2019-05-29T09:08:08.174Z,73.12
2019-05-29T09:09:08.152Z,73.12
2019-05-29T09:10:08.140Z,84.38
2019-05-29T09:11:08.131Z,90.00
2019-05-29T09:12:08.133Z,95.62
2019-05-29T09:13:08.128Z,95.62
2019-05-29T09:14:08.099Z,101.25
2019-05-29T09:15:08.813Z,112.50
2019-05-29T09:16:08.078Z,112.50
2019-05-29T09:17:08.218Z,101.25
2019-05-29T09:18:08.052Z,90.00
2019-05-29T09:19:08.042Z,73.12
2019-05-29T09:20:25.493Z,73.12
2019-05-29T09:21:09.017Z,84.38
2019-05-29T09:22:08.027Z,95.62
2019-05-29T09:23:07.997Z,106.88
2019-05-29T09:24:07.990Z,118.12
2019-05-29T09:25:07.987Z,123.75
2019-05-29T09:26:16.259Z,129.38
2019-05-29T09:27:08.983Z,135.00
2019-05-29T09:28:07.943Z,140.62
2019-05-29T09:29:07.930Z,140.62
2019-05-29T09:30:07.924Z,140.62
2019-05-29T09:31:07.921Z,140.62
2019-05-29T09:32:07.915Z,129.38
2019-05-29T09:33:07.886Z,123.75
2019-05-29T09:34:07.877Z,118.12
2019-05-29T09:35:07.918Z,106.88
2019-05-29T09:36:07.858Z,95.62
2019-05-29T09:37:07.868Z,90.00
2019-05-29T09:38:07.836Z,84.38
2019-05-29T09:39:07.831Z,78.75
2019-05-29T09:40:07.811Z,78.75
2019-05-29T09:41:07.801Z,78.75
2019-05-29T09:42:07.808Z,84.38
2019-05-29T09:43:07.776Z,84.38
2019-05-29T09:44:07.787Z,90.00
2019-05-29T09:45:07.765Z,101.25
2019-05-29T09:46:07.744Z,112.50
2019-05-29T09:47:07.762Z,129.38
2019-05-29T09:48:07.745Z,140.62
2019-05-29T09:49:07.710Z,146.25
2019-05-29T09:50:07.704Z,151.88
2019-05-29T09:51:20.570Z,157.50
2019-05-29T09:52:08.692Z,163.12
2019-05-29T09:53:07.678Z,163.12
2019-05-29T09:54:07.696Z,168.75
2019-05-29T09:55:07.648Z,174.38
2019-05-29T09:56:07.638Z,174.38
2019-05-29T09:57:07.649Z,174.38
2019-05-29T09:58:07.617Z,180.00
2019-05-29T09:59:07.618Z,180.00
2019-05-29T10:00:07.600Z,180.00
2019-05-29T10:01:22.303Z,157.50
2019-05-29T10:02:09.393Z,146.25
2019-05-29T10:03:07.571Z,135.00
2019-05-29T10:04:07.553Z,118.12
2019-05-29T10:05:07.552Z,112.50
2019-05-29T10:06:09.466Z,106.88
2019-05-29T10:07:07.534Z,106.88
2019-05-29T10:08:07.506Z,101.25
2019-05-29T10:09:07.491Z,101.25
2019-05-29T10:10:07.489Z,95.62
2019-05-29T10:11:10.683Z,101.25
2019-05-29T10:12:07.477Z,106.88
2019-05-29T10:13:07.451Z,112.50
2019-05-29T10:14:07.445Z,112.50
2019-05-29T10:15:07.429Z,112.50
2019-05-29T10:16:07.419Z,106.88
2019-05-29T10:17:11.729Z,106.88
2019-05-29T10:18:28.048Z,101.25
2019-05-29T10:19:08.382Z,101.25
2019-05-29T10:20:07.374Z,106.88
2019-05-29T10:21:07.367Z,106.88
2019-05-29T10:22:07.374Z,106.88
2019-05-29T10:23:07.355Z,106.88
2019-05-29T10:24:07.333Z,112.50
2019-05-29T10:25:07.319Z,118.12
2019-05-29T10:26:07.319Z,123.75
2019-05-29T10:27:07.299Z,129.38
2019-05-29T10:28:07.299Z,129.38
2019-05-29T10:29:09.372Z,135.00
2019-05-29T10:30:07.268Z,135.00
2019-05-29T10:31:07.372Z,135.00
2019-05-29T10:32:07.254Z,135.00
2019-05-29T10:33:07.263Z,135.00
2019-05-29T10:34:07.227Z,135.00
2019-05-29T10:35:07.216Z,123.75
2019-05-29T10:36:07.213Z,112.50
2019-05-29T10:37:07.188Z,106.88
2019-05-29T10:38:07.204Z,101.25
2019-05-29T10:39:07.167Z,90.00
2019-05-29T10:40:07.161Z,84.38
2019-05-29T10:41:07.561Z,78.75
2019-05-29T10:42:07.152Z,73.12
2019-05-29T10:43:07.140Z,67.50
2019-05-29T10:44:07.150Z,61.88
2019-05-29T10:45:07.125Z,61.88
2019-05-29T10:46:07.094Z,56.25
2019-05-29T10:47:07.096Z,50.62
2019-05-29T10:48:07.096Z,50.62
2019-05-29T10:49:07.066Z,45.00
2019-05-29T10:50:07.058Z,45.00
2019-05-29T10:51:07.038Z,45.00
2019-05-29T10:52:16.055Z,45.00
2019-05-29T10:53:08.055Z,50.62
2019-05-29T10:54:07.021Z,50.62
2019-05-29T10:55:06.994Z,50.62
2019-05-29T10:56:06.987Z,50.62
2019-05-29T10:57:06.986Z,50.62
2019-05-29T10:58:06.980Z,50.62
2019-05-29T10:59:07.028Z,50.62
2019-05-29T11:00:06.939Z,56.25
2019-05-29T11:01:06.942Z,56.25
2019-05-29T11:02:06.925Z,56.25
2019-05-29T11:03:06.930Z,56.25
2019-05-29T11:04:06.898Z,56.25
2019-05-29T11:05:06.897Z,56.25
2019-05-29T11:06:06.883Z,56.25
2019-05-29T11:07:06.872Z,61.88
2019-05-29T11:08:06.868Z,61.88
2019-05-29T11:09:06.848Z,67.50
2019-05-29T11:10:06.829Z,67.50
2019-05-29T11:11:06.830Z,73.12
2019-05-29T11:12:06.808Z,73.12
2019-05-29T11:13:06.810Z,78.75
2019-05-29T11:14:06.802Z,78.75
2019-05-29T11:15:20.685Z,84.38
2019-05-29T11:16:07.766Z,84.38
2019-05-29T11:17:06.789Z,84.38
2019-05-29T11:18:06.763Z,84.38
2019-05-29T11:19:06.738Z,78.75
2019-05-29T11:20:06.741Z,73.12
2019-05-29T11:21:06.710Z,67.50
2019-05-29T11:22:25.070Z,61.88
2019-05-29T11:23:07.699Z,50.62
2019-05-29T11:24:06.688Z,33.75
2019-05-29T11:25:21.415Z,22.50
2019-05-29T11:26:07.650Z,16.88
2019-05-29T11:27:06.645Z,11.25
2019-05-29T11:28:06.643Z,16.88
2019-05-29T11:29:06.630Z,16.88
2019-05-29T11:30:06.611Z,16.88
2019-05-29T11:31:06.606Z,22.50
2019-05-29T11:32:06.598Z,28.12
2019-05-29T11:33:06.594Z,28.12
2019-05-29T11:34:06.566Z,33.75
2019-05-29T11:35:06.570Z,33.75
2019-05-29T11:36:12.939Z,39.38
2019-05-29T11:37:07.527Z,39.38
2019-05-29T11:38:06.564Z,39.38
2019-05-29T11:39:06.517Z,39.38
2019-05-29T11:40:06.542Z,45.00
2019-05-29T11:41:25.309Z,45.00
2019-05-29T11:42:07.524Z,45.00
2019-05-29T11:43:06.497Z,50.62
2019-05-29T11:44:06.491Z,50.62
2019-05-29T11:45:06.449Z,50.62
2019-05-29T11:46:06.468Z,50.62
2019-05-29T11:47:06.425Z,56.25
2019-05-29T11:48:06.474Z,56.25
2019-05-29T11:49:06.409Z,61.88
2019-05-29T11:50:18.795Z,61.88
2019-05-29T11:51:07.379Z,67.50
2019-05-29T11:52:23.234Z,67.50
2019-05-29T11:53:07.369Z,67.50
2019-05-29T11:54:06.349Z,67.50
2019-05-29T11:55:08.003Z,73.12
2019-05-29T11:56:06.324Z,73.12
2019-05-29T11:57:06.328Z,73.12
2019-05-29T11:58:06.353Z,78.75
2019-05-29T11:59:06.324Z,84.38
2019-05-29T12:00:15.196Z,84.38
2019-05-29T12:01:07.272Z,90.00
2019-05-29T12:02:06.266Z,90.00
2019-05-29T12:03:06.272Z,95.62
2019-05-29T12:04:22.639Z,95.62
2019-05-29T12:05:07.228Z,95.62
2019-05-29T12:06:06.255Z,101.25
2019-05-29T12:07:06.203Z,106.88
2019-05-29T12:08:06.207Z,112.50
2019-05-29T12:09:06.186Z,118.12
2019-05-29T12:10:06.701Z,118.12
2019-05-29T12:11:07.128Z,123.75
2019-05-29T12:12:06.150Z,123.75
2019-05-29T12:13:06.154Z,129.38
2019-05-29T12:14:06.134Z,129.38
2019-05-29T12:15:13.050Z,135.00
2019-05-29T12:16:07.107Z,140.62
2019-05-29T12:17:06.099Z,146.25
2019-05-29T12:18:23.054Z,151.88
2019-05-29T12:19:07.074Z,157.50
2019-05-29T12:20:26.588Z,163.12
2019-05-29T12:21:07.051Z,163.12
2019-05-29T12:22:06.044Z,163.12
2019-05-29T12:23:22.994Z,163.12
2019-05-29T12:24:07.024Z,163.12
2019-05-29T12:25:06.011Z,168.75
2019-05-29T12:26:19.725Z,180.00
2019-05-29T12:27:07.037Z,191.25
2019-05-29T12:28:05.975Z,202.50
2019-05-29T12:29:11.410Z,213.75
2019-05-29T12:30:06.969Z,213.75
2019-05-29T12:31:05.943Z,225.00
2019-05-29T12:32:09.317Z,230.62
2019-05-29T12:33:06.920Z,230.62
2019-05-29T12:34:17.753Z,208.12
2019-05-29T12:35:06.895Z,191.25
2019-05-29T12:36:05.892Z,146.25
2019-05-29T12:37:05.875Z,101.25
2019-05-29T12:38:05.864Z,61.88
2019-05-29T12:39:05.878Z,50.62
2019-05-29T12:40:05.871Z,39.38
2019-05-29T12:41:05.833Z,39.38
2019-05-29T12:42:05.848Z,39.38
2019-05-29T12:43:05.807Z,39.38
2019-05-29T12:44:05.810Z,33.75
2019-05-29T12:45:05.794Z,28.12
2019-05-29T12:46:05.780Z,28.12
2019-05-29T12:47:05.856Z,28.12
2019-05-29T12:48:12.414Z,28.12
2019-05-29T12:49:06.761Z,33.75
2019-05-29T12:50:05.733Z,39.38
2019-05-29T12:51:05.965Z,39.38
2019-05-29T12:52:07.765Z,45.00
2019-05-29T12:53:05.701Z,50.62
2019-05-29T12:54:05.706Z,50.62
2019-05-29T12:55:05.676Z,50.62
2019-05-29T12:56:05.674Z,45.00
2019-05-29T12:57:05.675Z,45.00
2019-05-29T12:58:05.657Z,39.38